Frank Wiley Field
KMLS : now visible

Airfield :











YOU CAN JOIN US ON...

 
LOGIN :

Register | Disclaimer

   EN    FR    IT 

 









Legend :    VFR   Marginal VFR   IFR   Intensive IFR   Very Intensive IFR
Visi :
Ceiling :
>= 8 km
>= 3000ft
5 to 8 km
1000 to 3000 ft
1500m to 5 km
500 to 1000 ft
800 to 1500m
200 to 500 ft
< 800m
< 200 ft
Symbols :   Thunderstorms  Fog  Heavy snow  Heavy precipitations  Wind > 20 kt






- Airport Elevation : 2630 ft
- IATA code : MLS


KMLS - Frank Wiley Field

CURRENT METAR :
  • 202353Z AUTO 34013KT 10SM FEW048 SCT065 OVC080 07/M02 A3003 RMK AO2 SLP183 60000 T00721022 10083 20033 52019

EXPIRED METARs :
  • 202253Z AUTO 35016G21KT 10SM FEW045 BKN060 OVC070 08/M02 A3001 RMK AO2 PK WND 34030/2156 SLP176 T00781022
  • 202153Z AUTO 35021G28KT 10SM FEW044 BKN060 BKN070 08/M02 A2999 RMK AO2 PK WND 34029/2054 SLP170 T00781022

TAF KMLS
Valid from the 21 at 00:00 until the 22 at 00:00 UTC


202329Z 2100/2124 33019G27KT P6SM VCSH SCT020 BKN040 OVC060
FM210200 31008KT P6SM SCT040 BKN060
FM211200 32011KT P6SM VCSH FEW015 BKN025 OVC035
FM211800 33014KT P6SM VCSH SCT025 BKN050
KZLC FIR / North America



MET'MAP, your aeronautical weather chart ! - Copyright ORBIFLY December 2007 - Disclaimer

ORBIFLY MET'MAP TEAM :

Programming & Development : Alexandra Zaïnal
Original concept : Baudouin d'Aumeries
Technical & hardware support : Manuel Goepfert
Assistance : Marc-Olivier Méhu

Contact : metmap@orbifly.com




SOURCES & CREDITS :

   NOAA       Earth
Advisory